Time;durP1;ratioP1;P1;durP2;ratioP2;P2;SDS_P1;SDS_P2;PMS_P1;PMS_P2;Temp;Humidity;BMP_temperature;BMP_pressure;BME280_temperature;BME280_humidity;BME280_pressure;Samples;Min_cycle;Max_cycle;Signal;HPM_P1;HPM_P2
2022/08/19 00:01:18;;;;;;;7.35;6.65;;;;;;;21.97;45.38;100224.59;10564522;28;20231;-80
2022/08/19 00:06:42;;;;;;;8.63;7.15;;;;;;;21.71;46.08;100226.72;10571905;28;20205;-81
2022/08/19 00:12:05;;;;;;;9.25;7.55;;;;;;;21.58;46.90;100230.47;10545576;27;20301;-81
2022/08/19 00:17:27;;;;;;;8.10;7.40;;;;;;;21.50;46.49;100229.63;10553019;28;20513;-86
2022/08/19 00:22:49;;;;;;;9.65;8.07;;;;;;;21.40;46.68;100230.50;10573870;28;20337;-86
2022/08/19 00:28:12;;;;;;;10.40;8.00;;;;;;;21.42;46.68;100231.72;10565989;28;20186;-84
2022/08/19 00:33:34;;;;;;;8.93;8.02;;;;;;;21.42;46.67;100242.38;10570956;28;20235;-81
2022/08/19 00:38:56;;;;;;;9.45;7.93;;;;;;;21.21;47.03;100228.03;10575585;28;20214;-87
2022/08/19 00:44:22;;;;;;;9.25;8.27;;;;;;;21.17;47.32;100232.94;10557937;27;20270;-85
2022/08/19 00:49:50;;;;;;;10.38;9.27;;;;;;;20.97;47.76;100229.69;10585499;27;20205;-81
2022/08/19 00:55:21;;;;;;;9.07;8.27;;;;;;;20.72;48.56;100224.72;10564318;28;20206;-81
2022/08/19 01:00:45;;;;;;;10.95;8.45;;;;;;;21.01;47.76;100225.59;10562783;28;20201;-81
2022/08/19 01:06:07;;;;;;;10.27;8.15;;;;;;;21.34;46.39;100220.66;10572490;28;20271;-80
2022/08/19 01:11:31;;;;;;;9.85;8.95;;;;;;;20.94;47.76;100228.47;10557088;28;20266;-88
2022/08/19 01:16:55;;;;;;;11.70;8.32;;;;;;;20.93;47.54;100223.97;10560544;28;20205;-81
2022/08/19 01:22:23;;;;;;;10.70;8.65;;;;;;;20.72;48.01;100232.50;10561139;28;20217;-80
2022/08/19 01:27:47;;;;;;;9.88;8.73;;;;;;;20.59;47.90;100226.34;10584532;28;20190;-88
2022/08/19 01:33:09;;;;;;;10.38;9.55;;;;;;;20.72;47.85;100223.91;10561021;28;20181;-87
2022/08/19 01:38:36;;;;;;;11.10;8.80;;;;;;;20.53;48.36;100218.59;10543252;28;20609;-80
2022/08/19 01:44:03;;;;;;;10.45;9.48;;;;;;;20.94;47.38;100216.19;10544388;28;20226;-80
2022/08/19 01:49:26;;;;;;;12.35;9.38;;;;;;;20.70;48.25;100210.00;10580860;28;20197;-80
2022/08/19 01:54:48;;;;;;;10.67;9.60;;;;;;;20.53;48.48;100222.28;10555771;28;20678;-80
2022/08/19 02:00:13;;;;;;;10.73;9.63;;;;;;;20.61;48.00;100214.50;10562578;28;20206;-80
2022/08/19 02:05:36;;;;;;;10.77;9.80;;;;;;;20.74;47.70;100207.97;10557574;27;20641;-80
2022/08/19 02:10:58;;;;;;;11.48;10.38;;;;;;;20.63;48.27;100203.47;10591260;27;20286;-81
2022/08/19 02:16:21;;;;;;;11.57;9.48;;;;;;;20.81;47.84;100197.78;10573368;27;20193;-80
2022/08/19 02:21:43;;;;;;;10.57;9.43;;;;;;;20.73;47.82;100196.91;10570128;28;20206;-80
2022/08/19 02:27:06;;;;;;;11.48;9.27;;;;;;;20.61;48.39;100194.44;10560197;28;20186;-80
2022/08/19 02:32:30;;;;;;;10.52;9.43;;;;;;;20.48;48.77;100213.25;10576999;28;20221;-80
2022/08/19 02:43:38;;;;;;;10.50;9.00;;;;;;;20.67;48.08;100198.56;10562224;28;20225;-87
2022/08/19 02:49:03;;;;;;;10.88;9.80;;;;;;;20.68;48.24;100191.59;10555337;28;20255;-88
2022/08/19 02:54:25;;;;;;;9.17;8.37;;;;;;;19.99;49.55;100204.13;10552031;28;20532;-84
2022/08/19 02:59:47;;;;;;;10.50;9.47;;;;;;;20.08;49.26;100200.88;10582295;28;20290;-82
2022/08/19 03:05:10;;;;;;;11.37;9.70;;;;;;;20.11;49.62;100205.78;10593948;28;20213;-80
2022/08/19 03:10:32;;;;;;;11.13;10.05;;;;;;;20.41;48.42;100206.31;10568064;28;20243;-80
2022/08/19 03:15:55;;;;;;;11.50;10.10;;;;;;;20.28;49.09;100219.38;10583885;28;20190;-80
2022/08/19 03:21:23;;;;;;;12.95;9.43;;;;;;;20.08;49.75;100221.72;10569199;28;20190;-80
2022/08/19 03:26:48;;;;;;;11.23;10.13;;;;;;;20.43;48.61;100208.75;10555307;28;20210;-85
2022/08/19 03:32:11;;;;;;;11.47;9.53;;;;;;;20.54;48.53;100205.91;10569043;28;20185;-86
2022/08/19 03:37:34;;;;;;;14.68;10.88;;;;;;;20.47;48.88;100208.75;10565677;28;20248;-80
2022/08/19 03:42:56;;;;;;;13.30;11.90;;;;;;;20.45;48.76;100203.44;10559116;28;20214;-80
2022/08/19 03:48:19;;;;;;;12.57;11.27;;;;;;;20.35;49.38;100216.50;10560688;28;20306;-79
2022/08/19 03:53:41;;;;;;;12.10;10.90;;;;;;;20.29;48.85;100217.31;10582229;27;20262;-80
2022/08/19 03:59:05;;;;;;;11.65;10.55;;;;;;;20.43;48.83;100212.41;10590812;28;20190;-80
2022/08/19 04:04:28;;;;;;;12.30;11.10;;;;;;;20.20;49.43;100214.81;10581539;27;20266;-81
2022/08/19 04:09:51;;;;;;;13.73;11.23;;;;;;;20.19;49.33;100209.50;10567337;28;20290;-81
2022/08/19 04:15:13;;;;;;;14.43;13.13;;;;;;;20.02;49.98;100214.75;10575362;28;20528;-80
2022/08/19 04:20:46;;;;;;;14.70;12.50;;;;;;;20.17;49.73;100217.66;10559252;28;20197;-80
2022/08/19 04:26:13;;;;;;;12.73;11.52;;;;;;;20.02;49.68;100216.81;10581294;27;20239;-81
2022/08/19 04:31:36;;;;;;;12.07;10.35;;;;;;;19.93;49.34;100227.78;10578701;27;20251;-80
2022/08/19 04:36:58;;;;;;;12.13;10.57;;;;;;;20.04;49.31;100228.66;10570914;27;20200;-80
2022/08/19 04:42:39;;;;;;;14.20;12.67;;;;;;;19.38;51.25;100242.19;10575427;27;20197;-79
2022/08/19 04:48:01;;;;;;;13.50;12.23;;;;;;;19.86;50.06;100248.59;10593013;27;20197;-80
2022/08/19 04:53:26;;;;;;;15.23;13.70;;;;;;;20.04;49.66;100237.25;10583508;27;20219;-83
2022/08/19 04:58:51;;;;;;;13.13;11.77;;;;;;;20.24;49.15;100238.56;10562774;27;20219;-88
2022/08/19 05:04:13;;;;;;;15.07;13.47;;;;;;;20.37;48.80;100247.59;10567806;28;20218;-87
2022/08/19 05:09:35;;;;;;;16.58;14.90;;;;;;;20.70;48.16;100243.53;10573388;27;20214;-84
2022/08/19 05:14:58;;;;;;;21.67;14.70;;;;;;;20.74;48.03;100250.09;10559796;28;20186;-78
2022/08/19 05:26:01;;;;;;;18.90;16.58;;;;;;;20.77;48.27;100240.69;10587652;27;20522;-80
2022/08/19 05:31:23;;;;;;;25.57;18.73;;;;;;;20.87;48.37;100244.81;10590116;27;20194;-80
2022/08/19 05:36:45;;;;;;;25.55;19.08;;;;;;;20.70;48.82;100252.97;10578644;27;20665;-84
2022/08/19 05:42:10;;;;;;;27.63;20.13;;;;;;;20.81;49.00;100247.28;10584710;27;20194;-82
2022/08/19 05:47:33;;;;;;;27.50;18.00;;;;;;;21.21;47.99;100246.06;10562778;27;20305;-80
2022/08/19 05:52:55;;;;;;;18.73;15.45;;;;;;;20.83;48.51;100253.41;10565901;28;20243;-80
2022/08/19 05:58:17;;;;;;;21.60;19.03;;;;;;;21.04;48.57;100253.44;10570733;27;20194;-80
2022/08/19 06:03:40;;;;;;;22.13;19.17;;;;;;;21.26;47.90;100247.69;10569518;27;20242;-81
2022/08/19 06:09:07;;;;;;;22.23;19.07;;;;;;;21.51;47.82;100245.63;10599819;27;20674;-80
2022/08/19 06:14:32;;;;;;;45.60;18.75;;;;;;;21.68;47.61;100256.25;10550703;27;20202;-79
2022/08/19 06:19:54;;;;;;;36.58;19.65;;;;;;;21.50;47.90;100253.41;10560274;27;20255;-80
2022/08/19 06:25:16;;;;;;;27.33;17.80;;;;;;;22.05;46.90;100255.72;10584863;28;20574;-81
2022/08/19 06:30:38;;;;;;;22.67;19.10;;;;;;;22.35;46.26;100255.16;10571609;27;20259;-80
2022/08/19 06:36:01;;;;;;;20.55;17.88;;;;;;;22.17;47.04;100251.56;10585671;27;20197;-80
2022/08/19 06:41:24;;;;;;;23.70;19.63;;;;;;;22.48;46.03;100239.09;10593353;27;20251;-80
2022/08/19 06:46:52;;;;;;;25.08;19.90;;;;;;;22.70;45.18;100248.41;10566863;27;20249;-81
2022/08/19 06:52:14;;;;;;;26.08;20.45;;;;;;;22.81;45.65;100246.25;10564148;28;20189;-81
2022/08/19 06:57:36;;;;;;;24.05;20.42;;;;;;;21.82;47.43;100252.50;10558376;28;20201;-81
2022/08/19 07:02:58;;;;;;;25.48;20.50;;;;;;;22.05;46.92;100261.47;10567241;28;20222;-81
2022/08/19 07:08:20;;;;;;;25.33;19.67;;;;;;;22.49;45.87;100252.22;10582430;28;20213;-81
2022/08/19 07:13:37;;;;;;;23.20;17.45;;;;;;;22.89;45.18;100247.03;10589152;28;20562;-82
2022/08/19 07:18:59;;;;;;;19.48;17.45;;;;;;;23.14;44.89;100247.69;10577215;28;20201;-80
2022/08/19 07:24:23;;;;;;;20.95;17.35;;;;;;;22.22;46.68;100268.38;10550733;28;20213;-80
2022/08/19 07:29:46;;;;;;;22.58;17.65;;;;;;;23.00;44.76;100256.41;10602385;27;20198;-81
2022/08/19 07:35:09;;;;;;;24.05;16.83;;;;;;;23.09;45.09;100268.25;10588085;27;20225;-81
2022/08/19 07:40:31;;;;;;;24.52;18.23;;;;;;;22.65;45.72;100276.75;10565238;27;20211;-81
2022/08/19 07:45:56;;;;;;;20.05;16.33;;;;;;;23.22;44.97;100278.00;10556004;27;20629;-80
2022/08/19 07:51:09;;;;;;;21.98;16.60;;;;;;;23.36;44.04;100281.97;10544941;27;20229;-81
2022/08/19 07:56:31;;;;;;;18.95;14.77;;;;;;;23.03;45.13;100292.91;10575221;27;20194;-81
2022/08/19 08:01:55;;;;;;;17.40;14.70;;;;;;;22.75;45.98;100293.13;10552815;28;20198;-81
2022/08/19 08:12:58;;;;;;;18.65;13.65;;;;;;;22.98;45.75;100310.63;10552449;27;20213;-82
2022/08/19 08:18:20;;;;;;;15.77;13.05;;;;;;;23.19;44.97;100321.97;10582664;27;20235;-81
2022/08/19 08:23:42;;;;;;;13.23;10.00;;;;;;;24.12;42.01;100309.56;10559716;27;20201;-81
2022/08/19 08:28:58;;;;;;;13.48;10.93;;;;;;;23.80;44.22;100319.41;10586732;27;20747;-82
2022/08/19 08:34:21;;;;;;;16.00;11.55;;;;;;;23.88;42.76;100318.06;10570447;27;20634;-81
2022/08/19 08:39:43;;;;;;;12.75;11.25;;;;;;;23.61;42.53;100311.31;10564720;28;20247;-82
2022/08/19 08:45:14;;;;;;;13.35;10.82;;;;;;;24.24;42.13;100306.16;10552865;27;20210;-81
2022/08/19 08:50:42;;;;;;;16.08;12.20;;;;;;;23.73;42.79;100316.56;10577549;27;20590;-85
2022/08/19 08:56:06;;;;;;;15.30;12.93;;;;;;;23.09;44.26;100314.25;10565211;27;20197;-81
2022/08/19 09:01:28;;;;;;;13.93;12.38;;;;;;;23.94;43.13;100307.69;10570633;27;20270;-81
2022/08/19 09:07:19;;;;;;;14.55;13.07;;;;;;;24.03;41.96;100309.28;10568060;27;20567;-81
2022/08/19 09:13:22;;;;;;;15.52;14.02;;;;;;;24.38;40.73;100303.09;10566501;28;20233;-81
2022/08/19 09:18:52;;;;;;;20.63;14.82;;;;;;;24.85;40.24;100304.06;10565232;28;20671;-81
2022/08/19 09:24:14;;;;;;;13.80;12.25;;;;;;;25.31;38.70;100305.44;10570301;28;20202;-84
2022/08/19 09:29:37;;;;;;;15.88;14.27;;;;;;;24.52;38.39;100311.53;10585947;28;20243;-81
2022/08/19 09:35:00;;;;;;;14.45;13.05;;;;;;;24.71;39.17;100300.59;10569033;28;20309;-81
2022/08/19 09:40:22;;;;;;;15.50;11.77;;;;;;;25.42;37.63;100293.72;10557565;27;20219;-83
2022/08/19 09:45:44;;;;;;;21.05;14.13;;;;;;;24.95;37.48;100293.66;10565467;28;20221;-80
2022/08/19 09:51:17;;;;;;;17.15;15.18;;;;;;;25.62;35.85;100295.41;10583847;28;20238;-81
2022/08/19 09:56:39;;;;;;;18.17;15.48;;;;;;;26.04;35.63;100281.41;10560634;27;20482;-82
2022/08/19 10:02:01;;;;;;;21.88;19.55;;;;;;;25.86;36.22;100286.72;10553637;28;20244;-80
2022/08/19 10:07:24;;;;;;;24.40;21.92;;;;;;;24.93;38.48;100294.09;10549965;27;20229;-84
2022/08/19 10:12:47;;;;;;;16.67;14.88;;;;;;;24.06;38.35;100299.78;10562732;27;20229;-80
2022/08/19 10:18:09;;;;;;;14.95;12.68;;;;;;;24.57;37.66;100296.66;10586713;27;20254;-81
2022/08/19 10:23:31;;;;;;;13.57;12.30;;;;;;;24.12;38.32;100303.81;10593420;27;20189;-81
2022/08/19 10:28:54;;;;;;;11.45;10.32;;;;;;;24.63;36.40;100297.78;10573467;27;20235;-83
2022/08/19 10:34:17;;;;;;;10.38;9.38;;;;;;;24.70;36.50;100293.19;10563372;28;20194;-81
2022/08/19 10:39:39;;;;;;;15.55;14.00;;;;;;;25.01;37.04;100300.53;10551583;28;20218;-82
2022/08/19 10:45:02;;;;;;;14.95;13.40;;;;;;;25.27;36.73;100291.06;10560552;28;20510;-80
2022/08/19 11:01:46;;;;;;;12.82;10.10;;;;;;;26.12;33.22;100288.66;10584782;28;20194;-83
2022/08/19 11:07:08;;;;;;;9.55;7.15;;;;;;;25.30;33.00;100295.16;10573005;27;20270;-81
2022/08/19 11:12:30;;;;;;;8.82;7.82;;;;;;;26.49;31.16;100278.81;10584963;27;20278;-81
2022/08/19 11:17:54;;;;;;;11.05;9.95;;;;;;;26.15;33.81;100281.97;10596922;27;20219;-81
2022/08/19 11:23:16;;;;;;;12.88;11.50;;;;;;;26.24;33.32;100282.22;10579330;27;20246;-81
2022/08/19 11:28:38;;;;;;;11.38;10.32;;;;;;;26.51;32.27;100279.19;10575269;27;20263;-81
2022/08/19 11:34:03;;;;;;;8.10;7.40;;;;;;;26.46;31.14;100278.88;10559769;27;20198;-81
2022/08/19 11:39:27;;;;;;;9.50;7.38;;;;;;;26.47;31.48;100263.97;10544079;27;20264;-80
2022/08/19 11:44:50;;;;;;;6.47;5.50;;;;;;;26.39;28.88;100268.31;10588587;27;20217;-81
2022/08/19 11:50:12;;;;;;;8.68;7.90;;;;;;;27.33;29.46;100240.41;10580863;27;20197;-81
2022/08/19 11:55:38;;;;;;;14.65;13.10;;;;;;;26.19;32.36;100264.56;10595898;27;20239;-84
2022/08/19 12:01:01;;;;;;;18.95;17.02;;;;;;;26.09;32.85;100257.78;10560920;27;20586;-81
2022/08/19 12:06:29;;;;;;;18.08;16.20;;;;;;;26.79;32.38;100256.69;10569247;27;20217;-83
2022/08/19 12:11:51;;;;;;;20.08;17.83;;;;;;;26.58;32.27;100264.56;10532824;28;20226;-81
2022/08/19 12:17:13;;;;;;;20.30;18.17;;;;;;;25.64;33.45;100257.41;10490949;28;20505;-82
2022/08/19 12:22:40;;;;;;;17.70;15.85;;;;;;;26.74;30.69;100255.91;10503770;28;20195;-81
2022/08/19 12:28:03;;;;;;;16.48;14.80;;;;;;;26.99;30.98;100243.75;10504322;28;20264;-82
2022/08/19 12:33:27;;;;;;;14.07;12.60;;;;;;;26.57;30.73;100251.34;10476434;28;20244;-81
2022/08/19 12:38:50;;;;;;;13.65;12.35;;;;;;;27.13;29.69;100239.69;10475939;28;20256;-82
2022/08/19 12:44:12;;;;;;;12.73;10.93;;;;;;;26.76;30.00;100243.94;10483798;28;20872;-84
2022/08/19 12:49:36;;;;;;;16.23;14.75;;;;;;;25.66;33.09;100243.34;10482548;28;20273;-82
2022/08/19 12:54:58;;;;;;;17.30;13.68;;;;;;;26.32;32.29;100248.22;10447204;28;20630;-84
2022/08/19 13:00:21;;;;;;;15.35;13.85;;;;;;;27.20;30.53;100227.91;10497351;28;20661;-81
2022/08/19 13:05:43;;;;;;;16.05;14.52;;;;;;;26.34;31.58;100229.19;10474354;28;20231;-82
2022/08/19 13:11:13;;;;;;;14.15;12.85;;;;;;;26.77;30.85;100218.72;10495849;28;20319;-82
2022/08/19 13:16:36;;;;;;;15.82;12.45;;;;;;;26.10;31.29;100221.03;10527155;28;20225;-81
2022/08/19 13:21:58;;;;;;;10.57;9.60;;;;;;;27.35;29.00;100203.16;10542039;28;20194;-81
2022/08/19 13:27:20;;;;;;;9.20;8.32;;;;;;;27.25;28.27;100201.34;10507924;28;20676;-85
2022/08/19 13:38:23;;;;;;;8.50;6.75;;;;;;;27.85;27.78;100190.16;10530363;28;20292;-81
2022/08/19 13:43:46;;;;;;;7.38;6.45;;;;;;;28.08;27.54;100183.28;10524373;28;20210;-84
2022/08/19 13:49:08;;;;;;;8.38;7.55;;;;;;;27.97;27.43;100192.28;10548705;28;20511;-81
2022/08/19 13:54:30;;;;;;;7.50;6.72;;;;;;;28.26;27.30;100185.66;10531039;28;20221;-83
2022/08/19 13:59:52;;;;;;;6.47;5.97;;;;;;;27.33;27.30;100170.94;10509499;28;20247;-81
2022/08/19 14:05:16;;;;;;;6.93;5.90;;;;;;;28.72;26.09;100164.69;10538744;28;20264;-83
2022/08/19 14:10:38;;;;;;;7.07;6.05;;;;;;;28.53;27.27;100171.53;10516013;28;20268;-86
2022/08/19 14:16:01;;;;;;;8.27;7.40;;;;;;;27.51;27.70;100167.56;10509637;28;20732;-85
2022/08/19 14:21:24;;;;;;;8.60;7.53;;;;;;;26.68;28.72;100188.31;10505593;28;20505;-85
2022/08/19 14:26:47;;;;;;;8.05;7.05;;;;;;;26.72;28.75;100189.03;10513388;28;20218;-82
2022/08/19 14:32:09;;;;;;;6.68;5.80;;;;;;;27.68;27.82;100191.50;10516116;28;20255;-82
2022/08/19 14:37:33;;;;;;;10.25;6.07;;;;;;;27.60;26.66;100184.25;10521754;28;20208;-82
2022/08/19 14:42:59;;;;;;;7.25;6.60;;;;;;;28.09;26.40;100182.81;10517005;28;20225;-85
2022/08/19 14:48:22;;;;;;;7.03;6.22;;;;;;;27.79;26.00;100198.63;10511971;28;20250;-80
2022/08/19 14:53:49;;;;;;;6.45;5.57;;;;;;;27.10;27.28;100209.56;10512427;28;20199;-82
2022/08/19 14:59:12;;;;;;;6.00;5.28;;;;;;;28.27;26.42;100201.78;10524733;28;20575;-83
2022/08/19 15:04:34;;;;;;;7.50;5.57;;;;;;;27.85;25.85;100195.97;10525031;28;20194;-84
2022/08/19 15:10:02;;;;;;;8.30;5.13;;;;;;;27.03;26.79;100195.31;10517842;28;20298;-85
2022/08/19 15:15:26;;;;;;;7.95;5.65;;;;;;;27.20;27.40;100201.88;10520559;28;20587;-82
2022/08/19 15:20:49;;;;;;;7.18;4.78;;;;;;;26.93;27.33;100212.91;10517076;28;20195;-85
2022/08/19 15:26:11;;;;;;;5.38;4.50;;;;;;;27.28;26.40;100209.16;10485752;28;20611;-84
2022/08/19 15:31:35;;;;;;;6.47;4.18;;;;;;;27.08;27.31;100205.50;10513921;28;20287;-83
2022/08/19 15:36:58;;;;;;;5.53;4.03;;;;;;;27.77;26.01;100217.72;10503249;28;20191;-81
2022/08/19 15:42:21;;;;;;;5.05;4.60;;;;;;;27.47;27.34;100222.66;10518800;28;20202;-81
2022/08/19 15:47:43;;;;;;;6.65;4.18;;;;;;;28.23;25.95;100230.03;10513439;28;20725;-82
2022/08/19 15:53:08;;;;;;;5.40;4.35;;;;;;;27.49;26.94;100230.91;10527402;28;20275;-83
2022/08/19 16:09:52;;;;;;;6.70;5.85;;;;;;;27.37;26.75;100226.66;10514348;28;20264;-85
2022/08/19 16:15:14;;;;;;;6.13;5.53;;;;;;;27.49;26.29;100232.97;10538872;28;20490;-84
2022/08/19 16:20:37;;;;;;;7.55;6.35;;;;;;;27.63;27.16;100224.72;10512169;28;20203;-83
2022/08/19 16:25:59;;;;;;;8.60;6.30;;;;;;;27.89;26.58;100231.44;10521718;28;20291;-73
2022/08/19 16:31:24;;;;;;;9.93;7.63;;;;;;;27.32;27.71;100235.88;10539630;28;20252;-83
2022/08/19 16:36:46;;;;;;;10.10;8.20;;;;;;;26.94;28.73;100246.38;10514648;28;20590;-83
2022/08/19 16:42:10;;;;;;;8.45;7.70;;;;;;;27.37;27.73;100235.34;10499018;28;20187;-83
2022/08/19 16:47:32;;;;;;;8.52;7.60;;;;;;;27.09;28.14;100248.47;10522072;28;20626;-85
2022/08/19 16:52:57;;;;;;;10.80;7.28;;;;;;;27.55;28.25;100245.66;10476835;28;20238;-87
2022/08/19 16:58:24;;;;;;;11.88;7.45;;;;;;;26.96;28.31;100238.88;10536819;28;20280;-83
2022/08/19 17:03:48;;;;;;;8.25;7.40;;;;;;;27.43;27.46;100230.66;10460001;28;20222;-82
2022/08/19 17:09:10;;;;;;;8.65;6.25;;;;;;;26.95;28.61;100231.47;10542856;28;20253;-83
2022/08/19 17:14:33;;;;;;;8.70;6.57;;;;;;;26.37;28.63;100236.97;10440134;28;20223;-81
2022/08/19 17:19:59;;;;;;;8.90;7.97;;;;;;;26.91;28.18;100233.66;10479821;28;20210;-82
2022/08/19 17:25:22;;;;;;;8.70;6.85;;;;;;;27.07;27.28;100238.59;10489555;28;20615;-82
2022/08/19 17:30:44;;;;;;;8.43;7.53;;;;;;;27.05;27.37;100229.59;10459979;28;20222;-81
2022/08/19 17:36:06;;;;;;;8.48;7.53;;;;;;;26.57;27.95;100239.78;10484286;28;20275;-82
2022/08/19 17:41:29;;;;;;;10.85;8.30;;;;;;;27.11;27.15;100239.31;10487256;28;20253;-83
2022/08/19 17:46:52;;;;;;;10.55;7.93;;;;;;;26.90;27.72;100228.31;10435212;28;20232;-81
2022/08/19 17:52:15;;;;;;;12.15;8.85;;;;;;;26.42;28.66;100227.75;10488336;28;20284;-82
2022/08/19 17:57:40;;;;;;;14.90;9.18;;;;;;;26.86;28.41;100233.38;10464486;28;21503;-80
2022/08/19 18:03:04;;;;;;;11.18;9.50;;;;;;;26.52;29.07;100230.84;10476023;28;20541;-81
2022/08/19 18:08:27;;;;;;;11.80;8.93;;;;;;;26.39;29.27;100227.84;10431504;28;20258;-80
2022/08/19 18:13:49;;;;;;;10.45;8.95;;;;;;;26.14;30.04;100225.50;10486719;28;20643;-80
2022/08/19 18:19:11;;;;;;;11.38;8.43;;;;;;;25.66;30.40;100217.38;10490563;28;20187;-81
2022/08/19 18:24:37;;;;;;;10.57;8.93;;;;;;;26.20;29.84;100219.97;10497184;28;20268;-80
2022/08/19 18:29:59;;;;;;;9.98;8.18;;;;;;;26.40;29.51;100223.69;10469263;28;20242;-80
2022/08/19 18:35:28;;;;;;;12.95;8.77;;;;;;;25.80;30.93;100237.34;10481095;28;20562;-80
2022/08/19 18:52:12;;;;;;;11.02;8.90;;;;;;;26.15;30.42;100258.06;10451180;28;20246;-85
2022/08/19 18:57:34;;;;;;;11.13;8.85;;;;;;;26.01;30.56;100251.34;10434974;28;20226;-85
2022/08/19 19:02:57;;;;;;;9.23;8.20;;;;;;;25.91;30.94;100261.03;10440378;28;20234;-81
2022/08/19 19:08:19;;;;;;;10.52;7.65;;;;;;;25.97;30.76;100272.88;10433198;28;20634;-84
2022/08/19 19:13:45;;;;;;;8.10;7.25;;;;;;;25.55;31.72;100281.09;10442256;28;20243;-83
2022/08/19 19:19:11;;;;;;;8.85;7.68;;;;;;;25.64;31.42;100280.50;10428418;28;20299;-83
2022/08/19 19:24:36;;;;;;;10.00;7.85;;;;;;;25.20;32.92;100296.13;10440475;28;20231;-83
2022/08/19 19:29:58;;;;;;;12.25;7.90;;;;;;;25.33;33.75;100285.63;10461366;28;20524;-80
2022/08/19 19:35:20;;;;;;;11.60;9.25;;;;;;;25.45;33.89;100296.53;10443448;28;20231;-79
2022/08/19 19:40:42;;;;;;;10.52;8.80;;;;;;;25.72;33.80;100299.34;10441432;28;20219;-79
2022/08/19 19:46:05;;;;;;;13.77;9.80;;;;;;;25.35;35.32;100312.78;10438068;28;20249;-83
2022/08/19 19:51:27;;;;;;;14.50;10.98;;;;;;;25.52;35.52;100310.00;10441367;28;20219;-82
2022/08/19 19:56:49;;;;;;;14.88;12.63;;;;;;;25.17;37.00;100320.88;10439933;28;20253;-80
2022/08/19 20:02:14;;;;;;;17.63;12.98;;;;;;;25.48;36.81;100323.69;10479285;28;20225;-80
2022/08/19 20:13:19;;;;;;;14.00;10.93;;;;;;;25.10;38.36;100349.84;10469366;28;20250;-80
2022/08/19 20:18:42;;;;;;;12.63;11.32;;;;;;;24.55;39.40;100359.66;10475236;28;20564;-79
2022/08/19 20:24:05;;;;;;;11.80;9.65;;;;;;;23.88;41.05;100364.13;10460616;28;20489;-83
2022/08/19 20:29:28;;;;;;;11.55;9.45;;;;;;;23.05;43.31;100370.91;10457827;28;20308;-80
2022/08/19 20:34:50;;;;;;;13.80;10.35;;;;;;;24.89;40.08;100376.94;10464544;28;20230;-80
2022/08/19 20:40:13;;;;;;;11.52;9.57;;;;;;;24.61;40.74;100374.41;10464523;28;20280;-80
2022/08/19 20:45:36;;;;;;;11.50;9.00;;;;;;;25.05;39.60;100376.28;10464929;28;20277;-80
2022/08/19 20:50:59;;;;;;;10.90;9.55;;;;;;;24.93;40.16;100382.66;10488152;28;20624;-80
2022/08/19 20:56:21;;;;;;;13.23;10.52;;;;;;;25.58;38.77;100380.41;10504165;28;20284;-81
2022/08/19 21:01:43;;;;;;;12.00;10.23;;;;;;;25.00;39.72;100379.66;10453743;28;20235;-80
2022/08/19 21:07:07;;;;;;;13.13;8.98;;;;;;;25.21;39.77;100381.41;10494028;28;20246;-80
2022/08/19 21:12:29;;;;;;;12.18;9.90;;;;;;;25.43;39.35;100370.38;10502690;28;21031;-81
2022/08/19 21:17:52;;;;;;;12.00;10.25;;;;;;;25.52;39.13;100377.19;10498271;28;20214;-81
2022/08/19 21:23:18;;;;;;;11.75;9.45;;;;;;;25.56;39.25;100377.16;10506926;28;20234;-81
2022/08/19 21:28:40;;;;;;;10.35;9.30;;;;;;;25.08;39.86;100378.31;10487689;28;20233;-81
2022/08/19 21:34:03;;;;;;;13.88;10.63;;;;;;;24.01;42.10;100380.84;10497123;28;20266;-81
2022/08/19 21:39:25;;;;;;;10.65;9.48;;;;;;;25.11;40.07;100383.19;10515054;28;20297;-83
2022/08/19 21:44:47;;;;;;;11.00;9.32;;;;;;;25.25;39.95;100385.06;10521661;28;20248;-81
2022/08/19 21:50:10;;;;;;;12.55;10.63;;;;;;;25.42;39.72;100377.38;10502581;28;20557;-81
2022/08/19 21:55:32;;;;;;;12.27;9.80;;;;;;;25.38;39.59;100377.44;10519077;28;20202;-81
2022/08/19 22:00:54;;;;;;;12.07;9.98;;;;;;;25.28;39.77;100382.13;10523266;28;20214;-80
2022/08/19 22:06:17;;;;;;;10.35;9.27;;;;;;;25.42;39.27;100374.50;10534476;28;20287;-81
2022/08/19 22:11:40;;;;;;;12.93;8.80;;;;;;;24.94;40.28;100381.41;10521194;28;20221;-81
2022/08/19 22:17:02;;;;;;;9.55;8.50;;;;;;;25.32;39.99;100380.03;10507676;28;20198;-81
2022/08/19 22:22:30;;;;;;;9.65;8.13;;;;;;;25.44;39.40;100372.00;10526822;28;20190;-80
2022/08/19 22:27:53;;;;;;;10.68;8.05;;;;;;;24.43;41.51;100374.66;10516267;28;20237;-81
2022/08/19 22:33:17;;;;;;;9.55;8.18;;;;;;;25.30;39.42;100379.63;10499808;28;20211;-81
2022/08/19 22:38:39;;;;;;;9.95;8.65;;;;;;;25.39;39.29;100379.06;10525580;28;20201;-80
2022/08/19 22:44:02;;;;;;;9.98;8.52;;;;;;;25.24;39.56;100390.03;10518508;28;20591;-81
2022/08/19 22:49:24;;;;;;;8.10;7.30;;;;;;;25.06;40.31;100389.47;10504382;28;20296;-81
2022/08/19 22:54:51;;;;;;;8.27;7.47;;;;;;;25.22;39.70;100386.75;10518452;28;20251;-81
2022/08/19 23:00:14;;;;;;;12.60;9.20;;;;;;;25.13;39.85;100388.53;10506561;28;20240;-81
2022/08/19 23:05:36;;;;;;;11.27;9.20;;;;;;;24.30;41.17;100382.22;10497804;28;20263;-80
2022/08/19 23:10:58;;;;;;;11.88;10.10;;;;;;;24.53;41.19;100388.09;10525904;28;20226;-81
2022/08/19 23:16:20;;;;;;;11.57;9.15;;;;;;;24.13;41.81;100386.88;10501336;28;20211;-81
2022/08/19 23:21:42;;;;;;;12.98;10.27;;;;;;;24.63;41.06;100384.25;10518268;28;20252;-81
2022/08/19 23:32:45;;;;;;;15.10;10.60;;;;;;;24.03;43.26;100378.38;10539826;28;20207;-80
2022/08/19 23:38:08;;;;;;;14.93;11.77;;;;;;;23.97;43.74;100378.00;10517063;28;20583;-81
2022/08/19 23:43:31;;;;;;;13.93;11.23;;;;;;;24.28;43.01;100384.69;10512037;28;20267;-80
2022/08/19 23:48:54;;;;;;;13.35;11.20;;;;;;;24.51;43.07;100386.88;10507026;28;20224;-84
2022/08/19 23:54:16;;;;;;;14.18;10.55;;;;;;;24.61;44.93;100380.97;10525560;28;20595;-81
2022/08/19 23:59:39;;;;;;;16.45;12.63;;;;;;;23.11;49.62;100392.28;10499148;28;20261;-80
